createdAt,value
2019-04-07T00:00:24.400Z,13.23
2019-04-07T00:02:57.195Z,12.93
2019-04-07T00:05:31.015Z,11.23
2019-04-07T00:08:03.161Z,11.27
2019-04-07T00:10:36.786Z,11.83
2019-04-07T00:13:11.427Z,14.97
2019-04-07T00:15:45.236Z,11.23
2019-04-07T00:18:15.686Z,11.77
2019-04-07T00:20:47.356Z,12.50
2019-04-07T00:23:21.356Z,10.80
2019-04-07T00:25:53.844Z,11.03
2019-04-07T00:28:24.823Z,11.87
2019-04-07T00:30:55.343Z,12.27
2019-04-07T00:33:26.400Z,16.07
2019-04-07T00:35:58.173Z,13.47
2019-04-07T00:38:31.882Z,12.07
2019-04-07T00:41:05.678Z,11.53
2019-04-07T00:43:36.903Z,13.47
2019-04-07T00:46:08.852Z,13.40
2019-04-07T00:48:42.332Z,11.53
2019-04-07T00:51:15.480Z,12.07
2019-04-07T00:53:48.961Z,13.20
2019-04-07T00:56:23.492Z,12.03
2019-04-07T00:58:56.980Z,13.23
2019-04-07T01:01:29.727Z,12.00
2019-04-07T01:04:03.570Z,12.47
2019-04-07T01:06:37.326Z,11.90
2019-04-07T01:09:14.562Z,14.53
2019-04-07T01:11:47.445Z,13.47
2019-04-07T01:14:31.441Z,13.63
2019-04-07T01:17:04.624Z,10.73
2019-04-07T01:19:39.837Z,12.93
2019-04-07T01:22:14.450Z,12.10
2019-04-07T01:24:47.210Z,12.63
2019-04-07T01:27:24.626Z,12.50
2019-04-07T01:30:13.890Z,14.17
2019-04-07T01:32:46.725Z,14.10
2019-04-07T01:35:21.386Z,12.67
2019-04-07T01:37:54.244Z,14.90
2019-04-07T01:40:27.229Z,14.83
2019-04-07T01:43:22.788Z,16.00
2019-04-07T01:46:20.711Z,13.73
2019-04-07T01:49:24.105Z,16.97
2019-04-07T01:52:14.741Z,13.33
2019-04-07T01:55:19.083Z,17.37
2019-04-07T01:58:05.320Z,14.20
2019-04-07T02:01:12.846Z,13.20
2019-04-07T02:04:10.670Z,16.53
2019-04-07T02:07:09.399Z,13.53
2019-04-07T02:10:04.362Z,14.23
2019-04-07T02:13:01.082Z,16.17
2019-04-07T02:16:02.919Z,13.97
2019-04-07T02:18:54.135Z,14.17
2019-04-07T02:21:49.276Z,17.03
2019-04-07T02:25:01.879Z,14.33
2019-04-07T02:27:44.692Z,15.17
2019-04-07T02:30:48.118Z,14.10
2019-04-07T02:33:46.341Z,15.70
2019-04-07T02:36:33.663Z,22.10
2019-04-07T02:39:43.823Z,16.37
2019-04-07T02:42:23.412Z,16.67
2019-04-07T02:45:25.432Z,15.40
2019-04-07T02:48:15.916Z,14.33
2019-04-07T02:51:03.421Z,14.00
2019-04-07T02:54:00.781Z,14.83
2019-04-07T02:56:50.313Z,14.80
2019-04-07T02:59:33.320Z,16.20
2019-04-07T03:02:34.962Z,16.63
2019-04-07T03:05:43.558Z,20.27
2019-04-07T03:08:44.115Z,19.23
2019-04-07T03:11:25.654Z,19.97
2019-04-07T03:14:19.789Z,19.87
2019-04-07T03:17:08.493Z,20.00
2019-04-07T03:20:05.093Z,17.60
2019-04-07T03:23:09.412Z,17.97
2019-04-07T03:26:04.452Z,17.80
2019-04-07T03:28:54.525Z,17.60
2019-04-07T03:32:06.255Z,23.03
2019-04-07T03:34:46.876Z,17.07
2019-04-07T03:37:36.383Z,19.33
2019-04-07T03:40:39.476Z,16.30
2019-04-07T03:43:21.547Z,20.60
2019-04-07T03:46:08.061Z,16.27
2019-04-07T03:49:02.800Z,16.73
2019-04-07T03:51:40.519Z,16.53
2019-04-07T03:54:47.038Z,16.13
2019-04-07T03:57:41.937Z,16.53
2019-04-07T04:01:27.265Z,19.30
2019-04-07T04:04:12.074Z,17.00
2019-04-07T04:07:31.449Z,16.47
2019-04-07T04:10:07.163Z,18.40
2019-04-07T04:13:00.801Z,18.60
2019-04-07T04:15:39.573Z,17.17
2019-04-07T04:18:30.958Z,17.47
2019-04-07T04:21:20.213Z,16.60
2019-04-07T04:23:52.981Z,19.73
2019-04-07T04:26:26.927Z,20.87
2019-04-07T04:29:17.017Z,19.87
2019-04-07T04:31:47.862Z,19.43
2019-04-07T04:34:20.531Z,18.67
2019-04-07T04:36:53.101Z,22.00
2019-04-07T04:39:25.612Z,21.20
2019-04-07T04:41:59.978Z,20.33
2019-04-07T04:44:33.972Z,21.23
2019-04-07T04:47:05.926Z,20.93
2019-04-07T04:49:41.708Z,20.87
2019-04-07T04:52:15.657Z,23.50
2019-04-07T04:54:47.477Z,23.60
2019-04-07T04:57:23.251Z,22.53
2019-04-07T04:59:54.340Z,23.47
2019-04-07T05:02:27.532Z,25.53
2019-04-07T05:05:00.516Z,28.27
2019-04-07T05:07:32.175Z,25.50
2019-04-07T05:10:03.063Z,25.90
2019-04-07T05:12:36.942Z,29.03
2019-04-07T05:15:12.041Z,26.33
2019-04-07T05:17:47.261Z,28.00
2019-04-07T05:20:18.349Z,29.33
2019-04-07T05:22:52.279Z,34.13
2019-04-07T05:25:24.038Z,31.57
2019-04-07T05:27:55.852Z,29.93
2019-04-07T05:30:30.009Z,26.67
2019-04-07T05:33:08.841Z,32.20
2019-04-07T05:35:43.043Z,33.23
2019-04-07T05:38:15.897Z,28.90
2019-04-07T05:40:48.719Z,30.90
2019-04-07T05:43:21.543Z,29.47
2019-04-07T05:45:54.286Z,26.90
2019-04-07T05:48:27.980Z,28.17
2019-04-07T05:51:01.207Z,33.40
2019-04-07T05:53:35.502Z,30.97
2019-04-07T05:56:08.638Z,33.80
2019-04-07T05:58:44.775Z,29.53
2019-04-07T06:01:22.540Z,31.67
2019-04-07T06:03:52.248Z,32.57
2019-04-07T06:06:42.373Z,31.83
2019-04-07T06:09:20.778Z,30.10
2019-04-07T06:11:54.508Z,27.67
2019-04-07T06:14:46.572Z,30.70
2019-04-07T06:17:18.429Z,29.80
2019-04-07T06:19:52.323Z,28.77
2019-04-07T06:22:26.300Z,31.77
2019-04-07T06:25:00.787Z,28.87
2019-04-07T06:27:32.556Z,28.33
2019-04-07T06:30:05.192Z,25.50
2019-04-07T06:32:48.387Z,29.03
2019-04-07T06:35:20.942Z,31.27
2019-04-07T06:38:04.062Z,29.83
2019-04-07T06:40:32.379Z,25.87
2019-04-07T06:43:11.104Z,26.53
2019-04-07T06:46:03.816Z,32.10
2019-04-07T06:49:01.596Z,27.70
2019-04-07T06:51:46.683Z,27.33
2019-04-07T06:54:42.787Z,28.47
2019-04-07T06:57:36.733Z,29.30
2019-04-07T07:00:25.929Z,27.50
2019-04-07T07:03:12.929Z,30.60
2019-04-07T07:06:17.358Z,28.47
2019-04-07T07:09:10.580Z,29.40
2019-04-07T07:12:19.893Z,29.43
2019-04-07T07:14:58.319Z,29.63
2019-04-07T07:17:54.903Z,29.20
2019-04-07T07:21:01.790Z,28.80
2019-04-07T07:23:36.491Z,28.20
2019-04-07T07:26:08.168Z,28.90
2019-04-07T07:28:45.799Z,30.50
2019-04-07T07:31:18.234Z,32.57
2019-04-07T07:33:51.757Z,26.23
2019-04-07T07:36:27.414Z,29.23
2019-04-07T07:39:02.139Z,30.70
2019-04-07T07:41:34.475Z,28.10
2019-04-07T07:44:08.442Z,26.33
2019-04-07T07:46:49.117Z,27.27
2019-04-07T07:49:20.478Z,32.97
2019-04-07T07:51:52.805Z,26.93
2019-04-07T07:54:23.360Z,29.47
2019-04-07T07:56:55.846Z,28.27
2019-04-07T07:59:30.692Z,30.13
2019-04-07T08:02:02.425Z,27.03
2019-04-07T08:04:36.640Z,33.03
2019-04-07T08:07:09.047Z,28.93
2019-04-07T08:09:42.123Z,30.50
2019-04-07T08:12:16.392Z,28.00
2019-04-07T08:14:52.196Z,28.63
2019-04-07T08:17:38.657Z,33.77
2019-04-07T08:20:27.472Z,29.47
2019-04-07T08:23:00.680Z,27.20
2019-04-07T08:25:34.637Z,27.83
2019-04-07T08:28:20.678Z,29.03
2019-04-07T08:30:52.093Z,26.50
2019-04-07T08:33:28.752Z,28.90
2019-04-07T08:36:03.382Z,26.20
2019-04-07T08:38:40.267Z,25.53
2019-04-07T08:41:14.301Z,29.27
2019-04-07T08:44:02.898Z,29.70
2019-04-07T08:46:52.947Z,30.70
2019-04-07T08:49:39.074Z,31.83
2019-04-07T08:52:12.345Z,28.97
2019-04-07T08:54:50.552Z,32.57
2019-04-07T08:57:22.663Z,28.17
2019-04-07T09:00:16.821Z,28.07
2019-04-07T09:03:00.207Z,25.67
2019-04-07T09:05:31.001Z,27.80
2019-04-07T09:08:03.525Z,28.73
2019-04-07T09:10:49.605Z,29.20
2019-04-07T09:13:25.142Z,27.83
2019-04-07T09:16:16.227Z,28.07
2019-04-07T09:19:09.833Z,25.97
2019-04-07T09:21:52.544Z,22.77
2019-04-07T09:24:50.809Z,23.10
2019-04-07T09:27:58.853Z,21.87
2019-04-07T09:30:48.384Z,20.97
2019-04-07T09:33:34.758Z,21.90
2019-04-07T09:36:42.938Z,22.50
2019-04-07T09:39:52.839Z,19.07
2019-04-07T09:42:33.637Z,24.60
2019-04-07T09:45:25.444Z,19.27
2019-04-07T09:48:41.939Z,18.30
2019-04-07T09:51:31.001Z,17.20
2019-04-07T09:54:38.022Z,14.93
2019-04-07T09:57:25.998Z,13.83
2019-04-07T10:00:22.985Z,15.70
2019-04-07T10:03:11.687Z,16.50
2019-04-07T10:06:04.927Z,22.50
2019-04-07T10:08:45.544Z,16.40
2019-04-07T10:11:46.316Z,14.83
2019-04-07T10:14:38.747Z,16.80
2019-04-07T10:17:22.268Z,15.90
2019-04-07T10:20:04.351Z,17.00
2019-04-07T10:22:55.312Z,15.67
2019-04-07T10:25:47.554Z,17.30
2019-04-07T10:28:33.466Z,13.57
2019-04-07T10:31:39.919Z,15.33
2019-04-07T10:34:36.415Z,11.63
2019-04-07T10:37:36.234Z,11.23
2019-04-07T10:40:22.504Z,9.57
2019-04-07T10:43:36.511Z,9.33
2019-04-07T10:46:34.227Z,9.63
2019-04-07T10:49:44.259Z,11.37
2019-04-07T10:52:39.338Z,11.40
2019-04-07T10:55:20.730Z,11.47
2019-04-07T10:58:31.249Z,11.83
2019-04-07T11:01:19.661Z,14.87
2019-04-07T11:04:28.391Z,12.03
2019-04-07T11:07:20.414Z,10.30
2019-04-07T11:10:34.264Z,11.20
2019-04-07T11:13:15.818Z,11.03
2019-04-07T11:16:10.918Z,10.80
2019-04-07T11:19:03.345Z,10.73
2019-04-07T11:21:53.660Z,13.53
2019-04-07T11:24:50.376Z,13.77
2019-04-07T11:27:35.356Z,11.63
2019-04-07T11:30:29.522Z,11.40
2019-04-07T11:33:30.113Z,11.37
2019-04-07T11:36:29.844Z,10.77
2019-04-07T11:39:39.709Z,10.10
2019-04-07T11:42:46.135Z,10.47
2019-04-07T11:46:01.341Z,12.10
2019-04-07T11:49:02.565Z,9.13
2019-04-07T11:51:45.575Z,8.93
2019-04-07T11:54:29.496Z,8.70
2019-04-07T11:57:31.950Z,9.77
2019-04-07T12:00:33.421Z,9.37
2019-04-07T12:03:37.610Z,7.97
2019-04-07T12:06:30.027Z,7.97
2019-04-07T12:09:32.066Z,9.93
2019-04-07T12:12:43.817Z,8.17
2019-04-07T12:15:50.917Z,7.77
2019-04-07T12:18:50.170Z,8.30
2019-04-07T12:21:40.612Z,11.37
2019-04-07T12:24:32.596Z,9.50
2019-04-07T12:27:24.066Z,8.47
2019-04-07T12:30:14.366Z,7.60
2019-04-07T12:32:54.100Z,7.90
2019-04-07T12:35:50.987Z,7.00
2019-04-07T12:38:49.203Z,8.07
2019-04-07T12:41:44.738Z,8.80
2019-04-07T12:44:25.406Z,6.60
2019-04-07T12:47:33.023Z,6.07
2019-04-07T12:50:37.318Z,8.57
2019-04-07T12:53:47.907Z,6.77
2019-04-07T12:56:45.650Z,6.10
2019-04-07T12:59:55.122Z,5.13
2019-04-07T13:02:47.511Z,4.30
2019-04-07T13:05:36.709Z,3.93
2019-04-07T13:08:36.693Z,3.43
2019-04-07T13:11:31.244Z,4.10
2019-04-07T13:14:40.066Z,4.80
2019-04-07T13:17:31.393Z,5.67
2019-04-07T13:20:53.283Z,4.10
2019-04-07T13:23:48.214Z,3.63
2019-04-07T13:26:45.610Z,4.23
2019-04-07T13:29:41.588Z,4.47
2019-04-07T13:32:39.356Z,3.93
2019-04-07T13:35:23.066Z,4.50
2019-04-07T13:38:17.578Z,5.30
2019-04-07T13:41:00.831Z,5.73
2019-04-07T13:44:05.675Z,5.40
2019-04-07T13:47:10.561Z,4.37
2019-04-07T13:50:06.441Z,4.37
2019-04-07T13:53:01.296Z,5.10
2019-04-07T13:55:52.037Z,4.07
2019-04-07T13:58:37.927Z,4.13
2019-04-07T14:01:45.112Z,3.60
2019-04-07T14:04:36.075Z,3.80
2019-04-07T14:07:35.204Z,4.03
2019-04-07T14:10:51.888Z,5.97
2019-04-07T14:13:38.471Z,5.60
2019-04-07T14:16:30.181Z,5.43
2019-04-07T14:19:34.375Z,5.53
2019-04-07T14:22:25.577Z,7.47
2019-04-07T14:25:14.481Z,7.50
2019-04-07T14:27:59.046Z,7.00
2019-04-07T14:31:05.397Z,7.63
2019-04-07T14:34:00.386Z,7.13
2019-04-07T14:36:56.836Z,7.23
2019-04-07T14:39:39.343Z,5.87
2019-04-07T14:42:52.453Z,6.70
2019-04-07T14:45:50.394Z,6.80
2019-04-07T14:49:00.118Z,4.90
2019-04-07T14:51:46.090Z,5.27
2019-04-07T14:54:27.051Z,5.10
2019-04-07T14:57:34.054Z,4.90
2019-04-07T15:00:45.219Z,6.33
2019-04-07T15:03:24.595Z,6.07
2019-04-07T15:05:59.588Z,5.03
2019-04-07T15:08:47.623Z,5.60
2019-04-07T15:11:28.125Z,5.40
2019-04-07T15:14:12.783Z,5.90
2019-04-07T15:16:47.884Z,5.47
2019-04-07T15:19:37.093Z,7.20
2019-04-07T15:22:10.023Z,5.07
2019-04-07T15:24:41.137Z,5.33
2019-04-07T15:27:15.588Z,5.93
2019-04-07T15:30:05.661Z,5.40
2019-04-07T15:32:36.580Z,5.80
2019-04-07T15:35:12.472Z,5.90
2019-04-07T15:37:51.541Z,5.00
2019-04-07T15:40:21.714Z,6.67
2019-04-07T15:42:56.879Z,6.47
2019-04-07T15:45:28.759Z,8.00
2019-04-07T15:48:01.673Z,7.17
2019-04-07T15:50:35.638Z,7.50
2019-04-07T15:53:07.880Z,6.90
2019-04-07T15:55:49.893Z,6.60
2019-04-07T15:58:32.007Z,6.77
2019-04-07T16:01:11.839Z,7.77
2019-04-07T16:03:50.531Z,7.73
2019-04-07T16:06:20.619Z,7.73
2019-04-07T16:08:53.230Z,11.13
2019-04-07T16:11:29.007Z,8.50
2019-04-07T16:14:15.909Z,7.00
2019-04-07T16:16:51.345Z,7.03
2019-04-07T16:19:34.151Z,8.23
2019-04-07T16:21:57.216Z,8.00
2019-04-07T16:24:31.072Z,7.90
2019-04-07T16:27:07.040Z,7.87
2019-04-07T16:29:38.670Z,7.97
2019-04-07T16:32:12.451Z,7.60
2019-04-07T16:34:50.491Z,8.60
2019-04-07T16:37:22.752Z,8.23
2019-04-07T16:39:56.884Z,7.90
2019-04-07T16:43:00.432Z,7.57
2019-04-07T16:45:19.214Z,7.50
2019-04-07T16:48:09.022Z,7.90
2019-04-07T16:50:46.263Z,8.10
2019-04-07T16:53:20.554Z,8.00
2019-04-07T16:55:58.829Z,7.50
2019-04-07T16:58:35.407Z,12.13
2019-04-07T17:01:10.837Z,15.10
2019-04-07T17:03:47.113Z,17.40
2019-04-07T17:06:27.762Z,15.77
2019-04-07T17:08:59.275Z,8.50
2019-04-07T17:11:32.239Z,7.97
2019-04-07T17:14:05.926Z,7.10
2019-04-07T17:16:40.737Z,8.40
2019-04-07T17:19:10.140Z,8.33
2019-04-07T17:21:47.495Z,8.00
2019-04-07T17:24:36.562Z,11.50
2019-04-07T17:27:23.020Z,7.93
2019-04-07T17:29:57.082Z,10.43
2019-04-07T17:32:33.077Z,8.67
2019-04-07T17:35:04.649Z,9.13
2019-04-07T17:37:39.450Z,8.73
2019-04-07T17:40:23.450Z,10.93
2019-04-07T17:43:26.470Z,9.87
2019-04-07T17:46:11.159Z,11.13
2019-04-07T17:48:58.367Z,10.70
2019-04-07T17:51:53.105Z,11.60
2019-04-07T17:54:52.385Z,19.30
2019-04-07T17:57:34.754Z,14.87
2019-04-07T18:00:23.999Z,17.00
2019-04-07T18:03:14.140Z,14.00
2019-04-07T18:06:17.258Z,15.43
2019-04-07T18:09:11.732Z,13.30
2019-04-07T18:12:08.439Z,14.03
2019-04-07T18:15:05.786Z,12.57
2019-04-07T18:18:12.200Z,13.00
2019-04-07T18:20:54.151Z,19.90
2019-04-07T18:23:59.418Z,19.83
2019-04-07T18:26:40.249Z,17.00
2019-04-07T18:29:44.895Z,19.07
2019-04-07T18:32:34.088Z,16.63
2019-04-07T18:35:46.931Z,16.70
2019-04-07T18:38:50.430Z,22.27
2019-04-07T18:42:01.033Z,19.53
2019-04-07T18:44:41.223Z,19.30
2019-04-07T18:47:52.306Z,19.63
2019-04-07T18:50:58.760Z,19.70
2019-04-07T18:54:23.326Z,20.10
2019-04-07T18:57:13.049Z,21.47
2019-04-07T19:00:04.289Z,21.23
2019-04-07T19:02:53.895Z,20.00
2019-04-07T19:06:07.955Z,20.23
2019-04-07T19:09:00.938Z,22.60
2019-04-07T19:11:48.696Z,19.57
2019-04-07T19:14:44.480Z,20.83
2019-04-07T19:17:29.657Z,25.30
2019-04-07T19:20:48.018Z,27.00
2019-04-07T19:23:39.848Z,22.87
2019-04-07T19:26:49.800Z,28.70
2019-04-07T19:29:53.256Z,26.87
2019-04-07T19:32:48.457Z,28.80
2019-04-07T19:35:27.126Z,31.97
2019-04-07T19:38:19.872Z,34.30
2019-04-07T19:41:04.746Z,29.73
2019-04-07T19:43:58.985Z,31.93
2019-04-07T19:47:00.053Z,27.47
2019-04-07T19:50:09.529Z,27.63
2019-04-07T19:53:10.100Z,29.77
2019-04-07T19:55:58.455Z,32.33
2019-04-07T19:58:49.828Z,34.93
2019-04-07T20:01:59.049Z,30.57
2019-04-07T20:04:53.628Z,33.70
2019-04-07T20:07:46.185Z,34.57
2019-04-07T20:10:30.812Z,34.50
2019-04-07T20:13:36.543Z,37.23
2019-04-07T20:16:28.993Z,34.57
2019-04-07T20:19:33.306Z,32.07
2019-04-07T20:22:27.179Z,36.83
2019-04-07T20:25:16.055Z,34.67
2019-04-07T20:28:17.525Z,34.10
2019-04-07T20:31:12.556Z,30.67
2019-04-07T20:34:05.698Z,32.67
2019-04-07T20:37:11.288Z,31.00
2019-04-07T20:40:19.406Z,34.80
2019-04-07T20:43:05.958Z,35.40
2019-04-07T20:46:02.464Z,32.03
2019-04-07T20:48:54.319Z,31.50
2019-04-07T20:51:54.794Z,33.20
2019-04-07T20:54:58.512Z,33.00
2019-04-07T20:58:17.183Z,34.30
2019-04-07T21:01:11.317Z,32.33
2019-04-07T21:04:28.377Z,35.93
2019-04-07T21:07:24.865Z,35.43
2019-04-07T21:10:45.624Z,41.30
2019-04-07T21:13:53.434Z,32.67
2019-04-07T21:17:07.047Z,36.47
2019-04-07T21:20:05.382Z,35.07
2019-04-07T21:23:04.752Z,35.80
2019-04-07T21:25:56.943Z,35.73
2019-04-07T21:28:59.668Z,32.90
2019-04-07T21:31:46.745Z,33.93
2019-04-07T21:34:50.325Z,36.90
2019-04-07T21:37:53.036Z,31.43
2019-04-07T21:41:12.180Z,35.63
2019-04-07T21:44:03.300Z,36.17
2019-04-07T21:47:12.503Z,35.07
2019-04-07T21:50:15.956Z,35.20
2019-04-07T21:53:03.001Z,37.97
2019-04-07T21:56:03.896Z,35.80
2019-04-07T21:58:57.872Z,37.70
2019-04-07T22:01:50.878Z,38.30
2019-04-07T22:04:58.898Z,49.67
2019-04-07T22:08:13.089Z,41.30
2019-04-07T22:10:43.708Z,41.73
2019-04-07T22:13:34.433Z,51.87
2019-04-07T22:16:05.907Z,38.80
2019-04-07T22:18:39.457Z,42.53
2019-04-07T22:21:12.328Z,44.67
2019-04-07T22:24:01.906Z,42.27
2019-04-07T22:26:51.525Z,39.40
2019-04-07T22:29:22.549Z,40.23
2019-04-07T22:32:00.631Z,43.23
2019-04-07T22:34:34.013Z,42.03
2019-04-07T22:37:12.308Z,45.13
2019-04-07T22:39:45.645Z,46.07
2019-04-07T22:42:18.375Z,46.50
2019-04-07T22:44:53.269Z,44.23
2019-04-07T22:47:23.735Z,42.83
2019-04-07T22:49:56.959Z,43.53
2019-04-07T22:52:30.109Z,40.17
2019-04-07T22:55:05.665Z,42.13
2019-04-07T22:57:35.486Z,46.93
2019-04-07T23:00:15.532Z,49.97
2019-04-07T23:02:48.599Z,43.83
2019-04-07T23:05:25.702Z,51.13
2019-04-07T23:07:59.915Z,44.97
2019-04-07T23:10:33.704Z,45.00
2019-04-07T23:13:05.617Z,44.93
2019-04-07T23:15:43.936Z,45.33
2019-04-07T23:18:14.408Z,44.30
2019-04-07T23:21:03.289Z,42.90
2019-04-07T23:23:50.334Z,48.23
2019-04-07T23:26:20.818Z,47.47
2019-04-07T23:28:54.235Z,48.27
2019-04-07T23:31:30.222Z,45.33
2019-04-07T23:34:04.731Z,44.33
2019-04-07T23:36:38.710Z,49.13
2019-04-07T23:39:13.305Z,49.10
2019-04-07T23:41:47.312Z,51.73
2019-04-07T23:44:20.267Z,45.03
2019-04-07T23:46:50.989Z,49.60
2019-04-07T23:49:24.360Z,48.60
2019-04-07T23:51:57.700Z,44.30
2019-04-07T23:54:30.954Z,50.83
2019-04-07T23:57:03.801Z,51.00
2019-04-07T23:59:37.300Z,48.20
